createdAt,value
2016-10-30T00:00:52.711Z,0.08
2016-10-30T00:01:53.227Z,0.08
2016-10-30T00:02:53.889Z,0.07
2016-10-30T00:03:54.263Z,0.07
2016-10-30T00:04:54.918Z,0.07
2016-10-30T00:05:55.323Z,0.07
2016-10-30T00:06:55.807Z,0.07
2016-10-30T00:07:56.350Z,0.07
2016-10-30T00:08:56.836Z,0.16
2016-10-30T00:09:57.374Z,0.07
2016-10-30T00:10:57.857Z,0.07
2016-10-30T00:11:58.370Z,0.07
2016-10-30T00:12:59.029Z,0.07
2016-10-30T00:13:59.400Z,0.07
2016-10-30T00:14:59.916Z,0.34
2016-10-30T00:16:00.434Z,0.25
2016-10-30T00:17:00.969Z,0.07
2016-10-30T00:18:01.599Z,0.07
2016-10-30T00:19:01.992Z,0.07
2016-10-30T00:20:02.627Z,0.07
2016-10-30T00:21:03.139Z,0.07
2016-10-30T00:22:03.534Z,0.07
2016-10-30T00:23:04.170Z,0.07
2016-10-30T00:24:04.713Z,0.07
2016-10-30T00:25:05.193Z,0.07
2016-10-30T00:26:05.556Z,0.08
2016-10-30T00:27:06.069Z,0.08
2016-10-30T00:28:06.582Z,0.08
2016-10-30T00:29:07.098Z,0.08
2016-10-30T00:30:07.760Z,0.08
2016-10-30T00:31:08.122Z,0.08
2016-10-30T00:32:08.660Z,0.07
2016-10-30T00:33:09.154Z,0.07
2016-10-30T00:34:09.812Z,0.07
2016-10-30T00:35:10.325Z,0.07
2016-10-30T00:36:10.685Z,0.16
2016-10-30T00:37:11.341Z,0.07
2016-10-30T00:38:11.707Z,0.07
2016-10-30T00:39:12.248Z,0.07
2016-10-30T00:40:12.760Z,0.07
2016-10-30T00:41:13.249Z,0.07
2016-10-30T00:42:13.764Z,0.07
2016-10-30T00:43:14.423Z,0.07
2016-10-30T00:44:14.793Z,0.07
2016-10-30T00:45:15.459Z,0.07
2016-10-30T00:46:15.851Z,0.07
2016-10-30T00:47:16.485Z,0.07
2016-10-30T00:48:16.852Z,0.07
2016-10-30T00:49:17.363Z,0.06
2016-10-30T00:50:17.910Z,0.07
2016-10-30T00:51:18.534Z,0.07
2016-10-30T00:52:18.935Z,0.07
2016-10-30T00:53:19.414Z,0.07
2016-10-30T00:54:19.946Z,0.07
2016-10-30T00:55:20.457Z,0.07
2016-10-30T00:56:20.983Z,0.07
2016-10-30T00:57:21.463Z,0.07
2016-10-30T00:58:21.999Z,0.07
2016-10-30T00:59:22.488Z,0.06
2016-10-30T01:00:22.996Z,0.06
2016-10-30T01:01:23.518Z,0.06
2016-10-30T01:02:24.054Z,0.07
2016-10-30T01:03:24.537Z,0.06
2016-10-30T01:04:25.201Z,0.06
2016-10-30T01:05:25.712Z,0.06
2016-10-30T01:06:26.074Z,0.06
2016-10-30T01:07:26.612Z,0.06
2016-10-30T01:08:27.098Z,0.06
2016-10-30T01:09:27.755Z,0.06
2016-10-30T01:10:28.271Z,0.06
2016-10-30T01:11:28.780Z,0.06
2016-10-30T01:12:29.139Z,0.06
2016-10-30T01:13:29.656Z,0.06
2016-10-30T01:14:30.207Z,0.06
2016-10-30T01:15:30.705Z,0.06
2016-10-30T01:16:31.221Z,0.06
2016-10-30T01:17:31.714Z,0.06
2016-10-30T01:18:32.223Z,0.06
2016-10-30T01:19:32.754Z,0.06
2016-10-30T01:20:33.246Z,0.06
2016-10-30T01:21:33.767Z,0.06
2016-10-30T01:22:34.309Z,0.06
2016-10-30T01:23:34.825Z,0.06
2016-10-30T01:24:35.465Z,0.06
2016-10-30T01:25:35.980Z,0.06
2016-10-30T01:26:36.345Z,0.06
2016-10-30T01:27:37.005Z,0.06
2016-10-30T01:28:37.401Z,0.06
2016-10-30T01:29:38.036Z,0.06
2016-10-30T01:30:38.421Z,0.06
2016-10-30T01:31:39.055Z,0.06
2016-10-30T01:32:39.421Z,0.06
2016-10-30T01:33:39.937Z,0.06
2016-10-30T01:34:40.449Z,0.06
2016-10-30T01:35:41.106Z,0.06
2016-10-30T01:36:41.471Z,0.06
2016-10-30T01:37:41.982Z,0.06
2016-10-30T01:38:42.516Z,0.06
2016-10-30T01:39:43.151Z,0.06
2016-10-30T01:40:43.519Z,0.06
2016-10-30T01:41:44.039Z,0.06
2016-10-30T01:42:44.571Z,0.06
2016-10-30T01:43:45.204Z,0.06
2016-10-30T01:44:45.596Z,0.06
2016-10-30T01:45:46.081Z,0.06
2016-10-30T01:46:46.742Z,0.06
2016-10-30T01:47:47.107Z,0.06
2016-10-30T01:48:47.643Z,0.06
2016-10-30T01:49:48.279Z,0.06
2016-10-30T01:50:48.641Z,0.06
2016-10-30T01:51:49.304Z,0.07
2016-10-30T01:52:49.703Z,0.07
2016-10-30T01:53:50.177Z,0.07
2016-10-30T01:54:50.692Z,0.07
2016-10-30T01:55:51.202Z,0.07
2016-10-30T01:56:51.713Z,0.07
2016-10-30T01:57:52.223Z,0.07
2016-10-30T01:58:52.765Z,0.07
2016-10-30T01:59:53.250Z,0.07
2016-10-30T02:00:53.792Z,0.07
2016-10-30T02:01:54.429Z,0.07
2016-10-30T02:02:54.951Z,0.07
2016-10-30T02:03:55.318Z,0.07
2016-10-30T02:04:55.979Z,0.16
2016-10-30T02:05:56.366Z,0.34
2016-10-30T02:06:56.880Z,0.07
2016-10-30T02:07:57.518Z,0.07
2016-10-30T02:08:57.912Z,0.07
2016-10-30T02:09:58.395Z,0.08
2016-10-30T02:10:59.057Z,0.07
2016-10-30T02:11:59.421Z,0.07
2016-10-30T02:12:59.938Z,0.07
2016-10-30T02:14:00.595Z,0.07
2016-10-30T02:15:00.964Z,0.07
2016-10-30T02:16:01.620Z,0.07
2016-10-30T02:17:01.983Z,0.07
2016-10-30T02:18:02.642Z,0.07
2016-10-30T02:19:03.038Z,0.07
2016-10-30T02:20:03.526Z,0.07
2016-10-30T02:21:04.039Z,0.07
2016-10-30T02:22:04.702Z,0.07
2016-10-30T02:23:05.072Z,0.07
2016-10-30T02:24:05.580Z,0.07
2016-10-30T02:25:06.128Z,0.07
2016-10-30T02:26:06.607Z,0.06
2016-10-30T02:27:07.161Z,0.06
2016-10-30T02:28:07.783Z,0.07
2016-10-30T02:29:08.148Z,0.06
2016-10-30T02:30:08.660Z,0.06
2016-10-30T02:31:09.213Z,0.06
2016-10-30T02:32:09.834Z,0.07
2016-10-30T02:33:10.195Z,0.06
2016-10-30T02:34:10.737Z,0.06
2016-10-30T02:35:11.225Z,0.06
2016-10-30T02:36:11.885Z,0.06
2016-10-30T02:37:12.252Z,0.06
2016-10-30T02:38:12.913Z,0.06
2016-10-30T02:39:13.284Z,0.43
2016-10-30T02:40:13.798Z,0.34
2016-10-30T02:41:14.317Z,0.25
2016-10-30T02:42:14.838Z,0.25
2016-10-30T02:43:15.386Z,0.34
2016-10-30T02:44:15.891Z,0.07
2016-10-30T02:45:16.372Z,0.25
2016-10-30T02:46:16.884Z,0.07
2016-10-30T02:47:17.433Z,0.07
2016-10-30T02:48:18.059Z,0.07
2016-10-30T02:49:18.421Z,0.07
2016-10-30T02:50:18.936Z,0.07
2016-10-30T02:51:19.476Z,0.07
2016-10-30T02:52:19.963Z,0.07
2016-10-30T02:53:20.504Z,0.07
2016-10-30T02:54:20.989Z,0.07
2016-10-30T02:55:21.501Z,0.07
2016-10-30T02:56:22.024Z,0.07
2016-10-30T02:57:22.551Z,0.07
2016-10-30T02:58:23.193Z,0.08
2016-10-30T02:59:23.584Z,0.07
2016-10-30T03:00:24.218Z,0.08
2016-10-30T03:01:24.619Z,0.07
2016-10-30T03:02:25.244Z,0.07
2016-10-30T03:03:25.637Z,0.07
2016-10-30T03:04:26.277Z,0.08
2016-10-30T03:05:26.641Z,0.08
2016-10-30T03:06:27.299Z,0.08
2016-10-30T03:07:27.694Z,0.07
2016-10-30T03:08:28.325Z,0.07
2016-10-30T03:09:28.691Z,0.08
2016-10-30T03:10:29.228Z,0.08
2016-10-30T03:11:29.713Z,0.08
2016-10-30T03:12:30.252Z,0.08
2016-10-30T03:13:30.738Z,0.07
2016-10-30T03:14:31.399Z,0.07
2016-10-30T03:15:31.791Z,0.07
2016-10-30T03:16:32.423Z,0.07
2016-10-30T03:17:32.826Z,0.07
2016-10-30T03:18:33.308Z,0.07
2016-10-30T03:19:33.826Z,0.07
2016-10-30T03:20:34.488Z,0.07
2016-10-30T03:21:34.887Z,0.07
2016-10-30T03:22:35.528Z,0.07
2016-10-30T03:23:35.892Z,0.07
2016-10-30T03:24:36.553Z,0.07
2016-10-30T03:25:36.924Z,0.08
2016-10-30T03:26:37.470Z,0.07
2016-10-30T03:27:37.960Z,0.07
2016-10-30T03:28:38.464Z,0.07
2016-10-30T03:29:39.005Z,0.08
2016-10-30T03:30:39.488Z,0.08
2016-10-30T03:31:40.153Z,0.07
2016-10-30T03:32:40.528Z,0.07
2016-10-30T03:33:41.033Z,0.08
2016-10-30T03:34:41.542Z,0.08
2016-10-30T03:35:42.093Z,0.07
2016-10-30T03:36:42.570Z,0.07
2016-10-30T03:37:43.115Z,0.07
2016-10-30T03:38:43.749Z,0.07
2016-10-30T03:39:44.114Z,0.07
2016-10-30T03:40:44.775Z,0.07
2016-10-30T03:41:45.139Z,0.07
2016-10-30T03:42:45.799Z,0.07
2016-10-30T03:43:46.164Z,0.07
2016-10-30T03:44:46.681Z,0.07
2016-10-30T03:45:47.198Z,0.07
2016-10-30T03:46:47.735Z,0.07
2016-10-30T03:47:48.215Z,0.07
2016-10-30T03:48:48.728Z,0.07
2016-10-30T03:49:49.388Z,0.07
2016-10-30T03:50:49.899Z,0.07
2016-10-30T03:51:50.300Z,0.07
2016-10-30T03:52:50.808Z,0.07
2016-10-30T03:53:51.323Z,0.07
2016-10-30T03:54:51.801Z,0.07
2016-10-30T03:55:52.342Z,0.07
2016-10-30T03:56:52.825Z,0.07
2016-10-30T03:57:53.359Z,0.07
2016-10-30T03:58:54.012Z,0.07
2016-10-30T03:59:54.530Z,0.07
2016-10-30T04:00:55.044Z,0.07
2016-10-30T04:01:55.417Z,0.07
2016-10-30T04:02:56.072Z,0.07
2016-10-30T04:03:56.435Z,0.07
2016-10-30T04:04:57.096Z,0.07
2016-10-30T04:05:57.486Z,0.07
2016-10-30T04:06:58.123Z,0.07
2016-10-30T04:07:58.514Z,0.07
2016-10-30T04:08:58.999Z,0.07
2016-10-30T04:09:59.550Z,0.07
2016-10-30T04:11:00.175Z,0.07
2016-10-30T04:12:00.540Z,0.07
2016-10-30T04:13:01.057Z,0.34
2016-10-30T04:14:01.566Z,0.34
2016-10-30T04:15:02.112Z,0.07
2016-10-30T04:16:02.745Z,0.07
2016-10-30T04:17:03.109Z,0.07
2016-10-30T04:18:03.774Z,0.07
2016-10-30T04:19:04.136Z,0.07
2016-10-30T04:20:04.647Z,0.07
2016-10-30T04:21:05.159Z,0.07
2016-10-30T04:22:05.701Z,0.07
2016-10-30T04:23:06.332Z,0.07
2016-10-30T04:24:06.735Z,0.07
2016-10-30T04:25:07.213Z,0.07
2016-10-30T04:26:07.771Z,0.07
2016-10-30T04:27:08.242Z,0.08
2016-10-30T04:28:08.755Z,0.08
2016-10-30T04:29:09.411Z,0.07
2016-10-30T04:30:09.786Z,0.25
2016-10-30T04:31:10.437Z,0.25
2016-10-30T04:32:10.803Z,0.07
2016-10-30T04:33:11.345Z,0.07
2016-10-30T04:34:11.829Z,0.07
2016-10-30T04:35:12.372Z,0.07
2016-10-30T04:36:12.897Z,0.07
2016-10-30T04:37:13.382Z,0.07
2016-10-30T04:38:13.940Z,0.07
2016-10-30T04:39:14.566Z,0.07
2016-10-30T04:40:14.955Z,0.07
2016-10-30T04:41:15.442Z,0.07
2016-10-30T04:42:16.103Z,0.25
2016-10-30T04:43:16.468Z,0.25
2016-10-30T04:44:16.978Z,0.07
2016-10-30T04:45:17.491Z,0.07
2016-10-30T04:46:18.002Z,0.07
2016-10-30T04:47:18.661Z,0.06
2016-10-30T04:48:19.029Z,0.06
2016-10-30T04:49:19.547Z,0.06
2016-10-30T04:50:20.085Z,0.00
2016-10-30T04:51:20.621Z,0.00
2016-10-30T04:52:21.116Z,0.00
2016-10-30T04:53:21.643Z,0.00
2016-10-30T04:54:22.203Z,0.00
2016-10-30T04:55:22.716Z,0.00
2016-10-30T04:56:23.241Z,0.06
2016-10-30T04:57:23.866Z,0.06
2016-10-30T04:58:24.230Z,0.07
2016-10-30T04:59:24.748Z,0.07
2016-10-30T05:00:25.290Z,0.06
2016-10-30T05:01:25.776Z,0.06
2016-10-30T05:02:26.285Z,0.06
2016-10-30T05:03:26.947Z,0.06
2016-10-30T05:04:27.339Z,0.07
2016-10-30T05:05:27.820Z,0.06
2016-10-30T05:06:28.331Z,0.06
2016-10-30T05:07:28.843Z,0.07
2016-10-30T05:08:29.368Z,0.07
2016-10-30T05:09:29.867Z,0.07
2016-10-30T05:10:30.384Z,0.07
2016-10-30T05:11:31.039Z,0.07
2016-10-30T05:12:31.403Z,0.08
2016-10-30T05:13:31.919Z,0.08
2016-10-30T05:14:32.433Z,0.07
2016-10-30T05:15:33.095Z,0.07
2016-10-30T05:16:33.496Z,0.08
2016-10-30T05:17:34.013Z,0.08
2016-10-30T05:18:34.499Z,0.07
2016-10-30T05:19:35.021Z,0.07
2016-10-30T05:20:35.675Z,0.07
2016-10-30T05:21:36.038Z,0.07
2016-10-30T05:22:36.579Z,0.07
2016-10-30T05:23:37.074Z,0.07
2016-10-30T05:24:37.731Z,0.06
2016-10-30T05:25:38.094Z,0.06
2016-10-30T05:26:38.602Z,0.06
2016-10-30T05:27:39.130Z,0.07
2016-10-30T05:28:39.637Z,0.07
2016-10-30T05:29:40.289Z,0.07
2016-10-30T05:30:40.656Z,0.07
2016-10-30T05:31:41.167Z,0.07
2016-10-30T05:32:41.833Z,0.06
2016-10-30T05:33:42.225Z,0.07
2016-10-30T05:34:42.708Z,0.07
2016-10-30T05:35:43.224Z,0.07
2016-10-30T05:36:43.887Z,0.07
2016-10-30T05:37:44.249Z,0.07
2016-10-30T05:38:44.767Z,0.07
2016-10-30T05:39:45.309Z,0.07
2016-10-30T05:40:45.939Z,0.07
2016-10-30T05:41:46.302Z,0.07
2016-10-30T05:42:46.816Z,0.07
2016-10-30T05:43:47.351Z,0.44
2016-10-30T05:44:47.835Z,0.34
2016-10-30T05:45:48.496Z,0.07
2016-10-30T05:46:48.861Z,0.07
2016-10-30T05:47:49.516Z,0.34
2016-10-30T05:48:49.925Z,0.44
2016-10-30T05:49:50.542Z,0.07
2016-10-30T05:50:50.929Z,0.25
2016-10-30T05:51:51.420Z,0.44
2016-10-30T05:52:51.966Z,0.25
2016-10-30T05:53:52.456Z,0.53
2016-10-30T05:54:53.131Z,0.43
2016-10-30T05:55:53.500Z,0.71
2016-10-30T05:56:54.013Z,0.34
2016-10-30T05:57:54.553Z,0.07
2016-10-30T05:58:55.065Z,0.07
2016-10-30T05:59:55.561Z,0.07
2016-10-30T06:00:56.237Z,0.00
2016-10-30T06:01:56.611Z,0.00
2016-10-30T06:02:57.159Z,0.00
2016-10-30T06:03:57.656Z,0.07
2016-10-30T06:04:58.194Z,0.34
2016-10-30T06:05:58.684Z,0.07
2016-10-30T06:06:59.222Z,0.07
2016-10-30T06:07:59.710Z,0.25
2016-10-30T06:09:00.227Z,0.16
2016-10-30T06:10:00.881Z,0.07
2016-10-30T06:11:01.271Z,0.07
2016-10-30T06:12:01.796Z,0.07
2016-10-30T06:13:02.305Z,0.07
2016-10-30T06:14:02.788Z,0.16
2016-10-30T06:15:03.305Z,0.07
2016-10-30T06:16:03.961Z,0.07
2016-10-30T06:17:04.330Z,0.07
2016-10-30T06:18:04.837Z,0.25
2016-10-30T06:19:05.348Z,0.07
2016-10-30T06:20:05.863Z,0.07
2016-10-30T06:21:06.374Z,0.07
2016-10-30T06:22:06.912Z,0.07
2016-10-30T06:23:07.442Z,0.26
2016-10-30T06:24:08.057Z,0.16
2016-10-30T06:25:08.571Z,0.08
2016-10-30T06:26:08.936Z,0.08
2016-10-30T06:27:09.444Z,0.08
2016-10-30T06:28:09.956Z,0.62
2016-10-30T06:29:10.495Z,0.44
2016-10-30T06:30:10.986Z,0.25
2016-10-30T06:31:11.497Z,0.44
2016-10-30T06:32:12.020Z,0.07
2016-10-30T06:33:12.681Z,0.07
2016-10-30T06:34:13.068Z,0.07
2016-10-30T06:35:13.560Z,0.07
2016-10-30T06:36:14.226Z,0.16
2016-10-30T06:37:14.595Z,0.07
2016-10-30T06:38:15.108Z,0.25
2016-10-30T06:39:15.654Z,0.07
2016-10-30T06:40:16.274Z,0.07
2016-10-30T06:41:16.651Z,0.07
2016-10-30T06:42:17.146Z,0.07
2016-10-30T06:43:17.691Z,0.07
2016-10-30T06:44:18.173Z,0.07
2016-10-30T06:45:18.680Z,0.07
2016-10-30T06:46:19.339Z,0.07
2016-10-30T06:47:19.725Z,0.07
2016-10-30T06:48:20.215Z,0.07
2016-10-30T06:49:20.752Z,0.07
2016-10-30T06:50:21.388Z,0.26
2016-10-30T06:51:21.791Z,0.35
2016-10-30T06:52:22.267Z,0.35
2016-10-30T06:53:22.805Z,0.16
2016-10-30T06:54:23.322Z,0.44
2016-10-30T06:55:23.833Z,0.81
2016-10-30T06:56:24.324Z,0.62
2016-10-30T06:57:24.868Z,0.53
2016-10-30T06:58:25.383Z,0.25
2016-10-30T06:59:25.893Z,0.16
2016-10-30T07:00:26.528Z,0.08
2016-10-30T07:01:26.923Z,0.53
2016-10-30T07:02:27.398Z,0.53
2016-10-30T07:03:27.916Z,0.53
2016-10-30T07:04:28.573Z,0.08
2016-10-30T07:05:28.974Z,0.08
2016-10-30T07:06:29.598Z,0.08
2016-10-30T07:07:30.111Z,0.08
2016-10-30T07:08:30.619Z,0.08
2016-10-30T07:09:30.986Z,0.53
2016-10-30T07:10:31.647Z,0.44
2016-10-30T07:11:32.041Z,0.07
2016-10-30T07:12:32.535Z,0.07
2016-10-30T07:13:33.049Z,0.07
2016-10-30T07:14:33.712Z,0.07
2016-10-30T07:15:34.104Z,0.08
2016-10-30T07:16:34.589Z,0.25
2016-10-30T07:17:35.131Z,0.07
2016-10-30T07:18:35.763Z,0.07
2016-10-30T07:19:36.130Z,0.07
2016-10-30T07:20:36.644Z,0.07
2016-10-30T07:21:37.184Z,0.07
2016-10-30T07:22:37.670Z,0.07
2016-10-30T07:23:38.174Z,0.08
2016-10-30T07:24:38.840Z,0.07
2016-10-30T07:25:39.213Z,0.07
2016-10-30T07:26:39.719Z,0.44
2016-10-30T07:27:40.263Z,0.16
2016-10-30T07:28:40.893Z,0.16
2016-10-30T07:29:41.261Z,0.25
2016-10-30T07:30:41.772Z,0.07
2016-10-30T07:31:42.320Z,0.07
2016-10-30T07:32:42.802Z,0.08
2016-10-30T07:33:43.311Z,0.44
2016-10-30T07:34:43.976Z,0.07
2016-10-30T07:35:44.344Z,0.07
2016-10-30T07:36:45.003Z,0.35
2016-10-30T07:37:45.366Z,0.53
2016-10-30T07:38:46.030Z,0.25
2016-10-30T07:39:46.398Z,0.07
2016-10-30T07:40:46.912Z,0.07
2016-10-30T07:41:47.575Z,0.07
2016-10-30T07:42:47.937Z,0.16
2016-10-30T07:43:48.457Z,0.44
2016-10-30T07:44:48.965Z,0.34
2016-10-30T07:45:49.475Z,0.07
2016-10-30T07:46:49.986Z,0.53
2016-10-30T07:47:50.572Z,0.25
2016-10-30T07:48:51.013Z,0.62
2016-10-30T07:49:51.529Z,0.35
2016-10-30T07:50:52.190Z,0.25
2016-10-30T07:51:52.586Z,0.07
2016-10-30T07:52:53.079Z,0.26
2016-10-30T07:53:53.594Z,0.35
2016-10-30T07:54:54.294Z,0.08
2016-10-30T07:55:54.627Z,0.08
2016-10-30T07:56:55.279Z,0.08
2016-10-30T07:57:55.673Z,0.08
2016-10-30T07:58:56.188Z,0.26
2016-10-30T07:59:56.821Z,0.63
2016-10-30T08:00:57.184Z,0.35
2016-10-30T08:01:57.723Z,0.26
2016-10-30T08:02:58.357Z,0.08
2016-10-30T08:03:58.872Z,0.08
2016-10-30T08:04:59.236Z,0.08
2016-10-30T08:05:59.748Z,0.07
2016-10-30T08:07:00.407Z,0.07
2016-10-30T08:08:00.809Z,0.07
2016-10-30T08:09:01.286Z,0.07
2016-10-30T08:10:01.823Z,0.07
2016-10-30T08:11:02.460Z,0.07
2016-10-30T08:12:02.825Z,0.07
2016-10-30T08:13:03.485Z,0.07
2016-10-30T08:14:03.878Z,0.07
2016-10-30T08:15:04.363Z,0.07
2016-10-30T08:16:04.902Z,0.07
2016-10-30T08:17:05.532Z,0.07
2016-10-30T08:18:05.924Z,0.07
2016-10-30T08:19:06.438Z,0.07
2016-10-30T08:20:06.919Z,0.07
2016-10-30T08:21:07.439Z,0.07
2016-10-30T08:22:07.946Z,0.08
2016-10-30T08:23:08.462Z,0.08
2016-10-30T08:24:09.010Z,0.08
2016-10-30T08:25:09.634Z,0.08
2016-10-30T08:26:10.029Z,0.07
2016-10-30T08:27:10.512Z,0.07
2016-10-30T08:28:11.072Z,0.07
2016-10-30T08:29:11.544Z,0.07
2016-10-30T08:30:12.063Z,0.07
2016-10-30T08:31:12.613Z,0.07
2016-10-30T08:32:13.127Z,0.44
2016-10-30T08:33:13.613Z,0.35
2016-10-30T08:34:14.169Z,0.08
2016-10-30T08:35:14.645Z,0.08
2016-10-30T08:36:15.176Z,0.08
2016-10-30T08:37:15.821Z,0.08
2016-10-30T08:38:16.187Z,0.08
2016-10-30T08:39:16.850Z,0.07
2016-10-30T08:40:17.243Z,0.07
2016-10-30T08:41:17.873Z,0.62
2016-10-30T08:42:18.237Z,0.07
2016-10-30T08:43:18.786Z,0.07
2016-10-30T08:44:19.287Z,0.07
2016-10-30T08:45:19.781Z,0.72
2016-10-30T08:46:20.297Z,0.90
2016-10-30T08:47:20.811Z,1.00
2016-10-30T08:48:21.354Z,0.72
2016-10-30T08:49:21.841Z,1.09
2016-10-30T08:50:22.349Z,0.63
2016-10-30T08:51:22.877Z,0.81
2016-10-30T08:52:23.403Z,0.81
2016-10-30T08:53:24.045Z,0.44
2016-10-30T08:54:24.559Z,0.35
2016-10-30T08:55:25.071Z,0.08
2016-10-30T08:56:25.463Z,0.07
2016-10-30T08:57:25.982Z,0.53
2016-10-30T08:58:26.489Z,0.72
2016-10-30T08:59:27.129Z,0.63
2016-10-30T09:00:27.495Z,0.81
2016-10-30T09:01:28.007Z,0.72
2016-10-30T09:02:28.529Z,0.62
2016-10-30T09:03:29.182Z,0.72
2016-10-30T09:04:29.557Z,0.63
2016-10-30T09:05:30.091Z,0.63
2016-10-30T09:06:30.583Z,0.81
2016-10-30T09:07:31.131Z,0.72
2016-10-30T09:08:31.649Z,0.25
2016-10-30T09:09:32.124Z,0.90
2016-10-30T09:10:32.641Z,0.91
2016-10-30T09:11:33.163Z,0.72
2016-10-30T09:12:33.692Z,1.28
2016-10-30T09:13:34.187Z,1.19
2016-10-30T09:14:34.738Z,0.81
2016-10-30T09:15:35.213Z,0.81
2016-10-30T09:16:35.751Z,0.44
2016-10-30T09:17:36.402Z,1.75
2016-10-30T09:18:36.752Z,1.00
2016-10-30T09:19:37.261Z,0.63
2016-10-30T09:20:37.775Z,0.35
2016-10-30T09:21:38.291Z,0.53
2016-10-30T09:22:38.801Z,0.53
2016-10-30T09:23:39.463Z,0.53
2016-10-30T09:24:39.855Z,0.91
2016-10-30T09:25:40.341Z,0.63
2016-10-30T09:26:40.857Z,0.08
2016-10-30T09:27:41.369Z,0.72
2016-10-30T09:28:41.907Z,0.90
2016-10-30T09:29:42.541Z,1.47
2016-10-30T09:30:42.904Z,1.37
2016-10-30T09:31:43.474Z,1.00
2016-10-30T09:32:43.968Z,0.45
2016-10-30T09:33:44.597Z,0.35
2016-10-30T09:34:44.959Z,0.45
2016-10-30T09:35:45.471Z,0.45
2016-10-30T09:36:46.134Z,0.45
2016-10-30T09:37:46.498Z,0.91
2016-10-30T09:38:47.165Z,0.91
2016-10-30T09:39:47.533Z,0.54
2016-10-30T09:40:48.051Z,0.82
2016-10-30T09:41:48.561Z,0.82
2016-10-30T09:42:49.226Z,0.72
2016-10-30T09:43:49.592Z,0.35
2016-10-30T09:44:50.131Z,0.35
2016-10-30T09:45:50.770Z,0.26
2016-10-30T09:46:51.172Z,0.45
2016-10-30T09:47:51.803Z,1.19
2016-10-30T09:48:52.208Z,1.19
2016-10-30T09:49:52.838Z,1.18
2016-10-30T09:50:53.223Z,1.19
2016-10-30T09:51:53.710Z,0.91
2016-10-30T09:52:54.250Z,1.10
2016-10-30T09:53:54.739Z,0.82
2016-10-30T09:54:55.262Z,0.90
2016-10-30T09:55:55.770Z,0.91
2016-10-30T09:56:56.318Z,0.45
2016-10-30T09:57:56.938Z,0.45
2016-10-30T09:58:57.453Z,0.72
2016-10-30T09:59:57.961Z,0.54
2016-10-30T10:00:58.324Z,0.45
2016-10-30T10:01:58.835Z,0.45
2016-10-30T10:02:59.494Z,0.26
2016-10-30T10:04:00.014Z,0.08
2016-10-30T10:05:00.365Z,0.63
2016-10-30T10:06:01.028Z,0.36
2016-10-30T10:07:01.541Z,0.36
2016-10-30T10:08:01.908Z,0.35
2016-10-30T10:09:02.444Z,0.36
2016-10-30T10:10:03.083Z,0.26
2016-10-30T10:11:03.454Z,0.08
2016-10-30T10:12:03.962Z,0.36
2016-10-30T10:13:04.470Z,0.26
2016-10-30T10:14:04.988Z,0.08
2016-10-30T10:15:05.524Z,0.08
2016-10-30T10:16:06.040Z,0.08
2016-10-30T10:17:06.525Z,0.08
2016-10-30T10:18:07.067Z,0.54
2016-10-30T10:19:07.550Z,0.54
2016-10-30T10:20:08.064Z,0.08
2016-10-30T10:21:08.587Z,0.36
2016-10-30T10:22:09.089Z,0.45
2016-10-30T10:23:09.600Z,0.26
2016-10-30T10:24:10.119Z,0.08
2016-10-30T10:25:10.673Z,0.83
2016-10-30T10:26:11.147Z,0.54
2016-10-30T10:27:11.670Z,0.27
2016-10-30T10:28:12.183Z,0.09
2016-10-30T10:29:12.695Z,0.64
2016-10-30T10:30:13.215Z,0.55
2016-10-30T10:31:13.718Z,0.27
2016-10-30T10:32:14.232Z,0.09
2016-10-30T10:33:14.783Z,0.09
2016-10-30T10:34:15.263Z,0.27
2016-10-30T10:35:15.805Z,0.27
2016-10-30T10:36:16.314Z,0.37
2016-10-30T10:37:16.827Z,0.37
2016-10-30T10:38:17.463Z,0.54
2016-10-30T10:39:17.832Z,0.73
2016-10-30T10:40:18.495Z,0.45
2016-10-30T10:41:18.862Z,0.91
2016-10-30T10:42:19.525Z,0.27
2016-10-30T10:43:19.915Z,0.46
2016-10-30T10:44:20.421Z,0.64
2016-10-30T10:45:20.953Z,0.92
2016-10-30T10:46:21.574Z,1.20
2016-10-30T10:47:21.940Z,0.54
2016-10-30T10:48:22.459Z,0.09
2016-10-30T10:49:23.116Z,1.11
2016-10-30T10:50:23.479Z,0.64
2016-10-30T10:51:24.033Z,0.09
2016-10-30T10:52:24.653Z,0.09
2016-10-30T10:53:25.167Z,0.37
2016-10-30T10:54:25.678Z,0.54
2016-10-30T10:55:26.070Z,0.83
2016-10-30T10:56:26.552Z,0.09
2016-10-30T10:57:27.090Z,0.92
2016-10-30T10:58:27.728Z,0.17
2016-10-30T10:59:28.096Z,0.64
2016-10-30T11:00:28.758Z,0.85
2016-10-30T11:01:29.147Z,1.01
2016-10-30T11:02:29.779Z,0.99
2016-10-30T11:03:30.296Z,1.57
2016-10-30T11:04:30.815Z,0.73
2016-10-30T11:05:31.186Z,0.73
2016-10-30T11:06:31.702Z,0.45
2016-10-30T11:07:32.370Z,0.36
2016-10-30T11:08:32.733Z,0.09
2016-10-30T11:09:33.237Z,0.64
2016-10-30T11:10:33.779Z,0.73
2016-10-30T11:11:34.415Z,0.92
2016-10-30T11:12:34.806Z,0.73
2016-10-30T11:13:35.296Z,0.91
2016-10-30T11:14:35.802Z,1.01
2016-10-30T11:15:36.313Z,0.54
2016-10-30T11:16:36.836Z,0.64
2016-10-30T11:17:37.366Z,0.45
2016-10-30T11:18:37.995Z,0.83
2016-10-30T11:19:38.360Z,0.91
2016-10-30T11:20:38.902Z,0.54
2016-10-30T11:21:39.396Z,0.26
2016-10-30T11:22:39.899Z,0.27
2016-10-30T11:23:40.410Z,0.09
2016-10-30T11:24:40.928Z,0.09
2016-10-30T11:25:41.441Z,0.36
2016-10-30T11:26:41.977Z,0.64
2016-10-30T11:27:42.507Z,1.02
2016-10-30T11:28:42.983Z,1.02
2016-10-30T11:29:43.512Z,0.46
2016-10-30T11:30:44.029Z,0.55
2016-10-30T11:31:44.540Z,0.09
2016-10-30T11:32:45.177Z,0.18
2016-10-30T11:33:45.542Z,0.54
2016-10-30T11:34:46.055Z,0.46
2016-10-30T11:35:46.574Z,0.73
2016-10-30T11:36:47.080Z,1.21
2016-10-30T11:37:47.594Z,0.54
2016-10-30T11:38:48.135Z,0.46
2016-10-30T11:39:48.617Z,0.46
2016-10-30T11:40:49.278Z,0.73
2016-10-30T11:41:49.642Z,0.46
2016-10-30T11:42:50.309Z,1.58
2016-10-30T11:43:50.714Z,1.49
2016-10-30T11:44:51.344Z,1.20
2016-10-30T11:45:51.736Z,0.83
2016-10-30T11:46:52.227Z,1.29
2016-10-30T11:47:52.893Z,0.64
2016-10-30T11:48:53.407Z,0.54
2016-10-30T11:49:53.811Z,0.64
2016-10-30T11:50:54.316Z,1.02
2016-10-30T11:51:54.840Z,1.11
2016-10-30T11:52:55.462Z,0.83
2016-10-30T11:53:55.827Z,0.46
2016-10-30T11:54:56.485Z,0.92
2016-10-30T11:55:56.852Z,1.11
2016-10-30T11:56:57.391Z,0.54
2016-10-30T11:57:57.874Z,0.37
2016-10-30T11:58:58.534Z,0.83
2016-10-30T11:59:58.903Z,0.64
2016-10-30T12:00:59.413Z,1.48
2016-10-30T12:02:00.077Z,0.74
2016-10-30T12:03:00.584Z,1.57
2016-10-30T12:04:00.946Z,0.64
2016-10-30T12:05:01.459Z,0.54
2016-10-30T12:06:01.973Z,0.92
2016-10-30T12:07:02.481Z,0.54
2016-10-30T12:08:02.998Z,0.73
2016-10-30T12:09:03.507Z,1.01
2016-10-30T12:10:04.024Z,1.01
2016-10-30T12:11:04.678Z,0.73
2016-10-30T12:12:05.197Z,0.92
2016-10-30T12:13:05.555Z,1.02
2016-10-30T12:14:06.076Z,1.02
2016-10-30T12:15:06.607Z,1.11
2016-10-30T12:16:07.099Z,1.29
2016-10-30T12:17:07.755Z,0.92
2016-10-30T12:18:08.122Z,1.30
2016-10-30T12:19:08.783Z,1.11
2016-10-30T12:20:09.147Z,1.12
2016-10-30T12:21:09.662Z,1.20
2016-10-30T12:22:10.218Z,0.84
2016-10-30T12:23:10.699Z,1.39
2016-10-30T12:24:11.243Z,1.02
2016-10-30T12:25:11.730Z,1.30
2016-10-30T12:26:12.250Z,1.02
2016-10-30T12:27:12.753Z,0.84
2016-10-30T12:28:13.264Z,0.83
2016-10-30T12:29:13.923Z,1.96
2016-10-30T12:30:14.292Z,0.88
2016-10-30T12:31:14.803Z,0.63
2016-10-30T12:32:15.338Z,0.92
2016-10-30T12:33:15.830Z,0.64
2016-10-30T12:34:16.495Z,1.11
2016-10-30T12:35:17.006Z,1.58
2016-10-30T12:36:17.364Z,1.58
2016-10-30T12:37:17.884Z,1.39
2016-10-30T12:38:18.410Z,2.31
2016-10-30T12:39:18.937Z,1.02
2016-10-30T12:40:19.421Z,1.29
2016-10-30T12:41:19.925Z,0.88
2016-10-30T12:42:20.476Z,1.67
2016-10-30T12:43:21.125Z,0.74
2016-10-30T12:44:21.617Z,0.65
2016-10-30T12:45:21.976Z,0.65
2016-10-30T12:46:22.489Z,1.02
2016-10-30T12:47:23.147Z,0.65
2016-10-30T12:48:23.660Z,0.28
2016-10-30T12:49:24.172Z,0.55
2016-10-30T12:50:24.560Z,0.55
2016-10-30T12:51:25.194Z,0.55
2016-10-30T12:52:25.565Z,0.55
2016-10-30T12:53:26.221Z,1.02
2016-10-30T12:54:26.614Z,1.11
2016-10-30T12:55:27.102Z,1.02
2016-10-30T12:56:27.637Z,0.84
2016-10-30T12:57:28.128Z,0.37
2016-10-30T12:58:28.662Z,0.65
2016-10-30T12:59:29.186Z,0.65
2016-10-30T13:00:29.678Z,0.65
2016-10-30T13:01:30.188Z,0.47
2016-10-30T13:02:30.735Z,0.74
2016-10-30T13:03:31.219Z,0.65
2016-10-30T13:04:31.741Z,1.21
2016-10-30T13:05:32.389Z,2.04
2016-10-30T13:06:32.779Z,1.77
2016-10-30T13:07:33.283Z,1.05
2016-10-30T13:08:33.825Z,1.30
2016-10-30T13:09:34.443Z,1.12
2016-10-30T13:10:34.832Z,1.39
2016-10-30T13:11:35.463Z,1.58
2016-10-30T13:12:35.853Z,0.55
2016-10-30T13:13:36.335Z,1.12
2016-10-30T13:14:36.884Z,1.02
2016-10-30T13:15:37.365Z,1.38
2016-10-30T13:16:37.873Z,1.49
2016-10-30T13:17:38.534Z,1.30
2016-10-30T13:18:38.925Z,1.02
2016-10-30T13:19:39.411Z,1.67
2016-10-30T13:20:39.924Z,1.49
2016-10-30T13:21:40.589Z,0.93
2016-10-30T13:22:40.959Z,0.55
2016-10-30T13:23:41.615Z,0.93
2016-10-30T13:24:42.129Z,0.92
2016-10-30T13:25:42.491Z,1.12